sensor_id;sensor_type;location;lat;lon;timestamp;pressure;altitude;pressure_sealevel;temperature;humidity
66801;BME280;53703;50.326;19.122;2023-05-21T00:01:24;99173.70;;;18.23;60.36
66801;BME280;53703;50.326;19.122;2023-05-21T00:04:18;99171.04;;;18.22;60.48
66801;BME280;53703;50.326;19.122;2023-05-21T00:07:13;99166.42;;;18.25;60.35
66801;BME280;53703;50.326;19.122;2023-05-21T00:10:09;99165.86;;;18.26;60.27
66801;BME280;53703;50.326;19.122;2023-05-21T00:13:03;99163.55;;;18.30;59.98
66801;BME280;53703;50.326;19.122;2023-05-21T00:15:57;99160.36;;;18.27;59.96
66801;BME280;53703;50.326;19.122;2023-05-21T00:18:51;99160.10;;;18.24;60.17
66801;BME280;53703;50.326;19.122;2023-05-21T00:21:46;99164.27;;;18.24;60.10
66801;BME280;53703;50.326;19.122;2023-05-21T00:27:49;99164.86;;;18.08;60.85
66801;BME280;53703;50.326;19.122;2023-05-21T00:34:33;99164.94;;;18.16;60.43
66801;BME280;53703;50.326;19.122;2023-05-21T00:37:37;99165.91;;;18.07;60.84
66801;BME280;53703;50.326;19.122;2023-05-21T00:56:52;99157.05;;;18.27;60.25
66801;BME280;53703;50.326;19.122;2023-05-21T00:59:47;99146.55;;;18.21;60.71
66801;BME280;53703;50.326;19.122;2023-05-21T01:02:43;99145.73;;;18.14;61.32
66801;BME280;53703;50.326;19.122;2023-05-21T01:05:38;99144.60;;;18.28;60.51
66801;BME280;53703;50.326;19.122;2023-05-21T01:08:38;99142.86;;;18.07;61.42
66801;BME280;53703;50.326;19.122;2023-05-21T01:11:40;99142.46;;;18.11;61.26
66801;BME280;53703;50.326;19.122;2023-05-21T01:14:40;99142.63;;;18.22;60.86
66801;BME280;53703;50.326;19.122;2023-05-21T01:17:34;99137.90;;;18.24;60.73
66801;BME280;53703;50.326;19.122;2023-05-21T01:20:30;99134.63;;;18.19;60.97
66801;BME280;53703;50.326;19.122;2023-05-21T01:23:25;99131.08;;;18.23;60.65
66801;BME280;53703;50.326;19.122;2023-05-21T01:26:20;99130.54;;;18.25;60.72
66801;BME280;53703;50.326;19.122;2023-05-21T01:29:09;99130.83;;;18.23;60.71
66801;BME280;53703;50.326;19.122;2023-05-21T01:41:53;99125.34;;;18.26;60.33
66801;BME280;53703;50.326;19.122;2023-05-21T01:44:50;99121.83;;;18.20;60.51
66801;BME280;53703;50.326;19.122;2023-05-21T01:47:33;99118.27;;;18.11;60.90
66801;BME280;53703;50.326;19.122;2023-05-21T01:50:30;99114.50;;;18.10;60.96
66801;BME280;53703;50.326;19.122;2023-05-21T01:53:24;99111.41;;;18.09;60.91
66801;BME280;53703;50.326;19.122;2023-05-21T01:56:18;99106.58;;;18.03;61.22
66801;BME280;53703;50.326;19.122;2023-05-21T01:59:17;99103.98;;;18.01;61.19
66801;BME280;53703;50.326;19.122;2023-05-21T02:02:11;99101.77;;;18.03;61.08
66801;BME280;53703;50.326;19.122;2023-05-21T02:05:06;99104.64;;;18.07;60.81
66801;BME280;53703;50.326;19.122;2023-05-21T02:08:01;99102.68;;;18.15;60.63
66801;BME280;53703;50.326;19.122;2023-05-21T02:10:55;99101.70;;;18.20;60.19
66801;BME280;53703;50.326;19.122;2023-05-21T02:13:49;99098.17;;;18.24;60.00
66801;BME280;53703;50.326;19.122;2023-05-21T02:16:42;99097.42;;;18.13;60.43
66801;BME280;53703;50.326;19.122;2023-05-21T02:19:36;99095.31;;;18.12;60.52
66801;BME280;53703;50.326;19.122;2023-05-21T02:22:30;99095.83;;;18.13;60.45
66801;BME280;53703;50.326;19.122;2023-05-21T02:25:24;99094.88;;;18.21;60.00
66801;BME280;53703;50.326;19.122;2023-05-21T02:28:19;99094.69;;;18.29;59.59
66801;BME280;53703;50.326;19.122;2023-05-21T02:31:13;99089.81;;;18.23;59.64
66801;BME280;53703;50.326;19.122;2023-05-21T02:34:07;99084.27;;;18.34;59.25
66801;BME280;53703;50.326;19.122;2023-05-21T02:37:02;99082.11;;;18.41;58.81
66801;BME280;53703;50.326;19.122;2023-05-21T02:39:56;99079.36;;;18.31;59.24
66801;BME280;53703;50.326;19.122;2023-05-21T02:42:50;99074.63;;;18.36;58.98
66801;BME280;53703;50.326;19.122;2023-05-21T02:45:44;99073.41;;;18.19;59.54
66801;BME280;53703;50.326;19.122;2023-05-21T02:48:38;99072.39;;;18.47;58.40
66801;BME280;53703;50.326;19.122;2023-05-21T02:51:32;99073.63;;;18.23;59.37
66801;BME280;53703;50.326;19.122;2023-05-21T02:54:27;99074.06;;;18.24;59.26
66801;BME280;53703;50.326;19.122;2023-05-21T02:57:20;99070.84;;;18.29;58.91
66801;BME280;53703;50.326;19.122;2023-05-21T03:00:16;99076.87;;;18.42;58.46
66801;BME280;53703;50.326;19.122;2023-05-21T03:03:10;99072.46;;;18.40;58.43
66801;BME280;53703;50.326;19.122;2023-05-21T03:06:04;99076.25;;;18.10;59.41
66801;BME280;53703;50.326;19.122;2023-05-21T03:09:01;99077.86;;;18.13;59.23
66801;BME280;53703;50.326;19.122;2023-05-21T03:11:56;99077.72;;;18.35;58.43
66801;BME280;53703;50.326;19.122;2023-05-21T03:14:50;99081.36;;;18.47;58.03
66801;BME280;53703;50.326;19.122;2023-05-21T03:17:44;99081.68;;;18.47;57.92
66801;BME280;53703;50.326;19.122;2023-05-21T03:20:38;99082.59;;;18.59;57.34
66801;BME280;53703;50.326;19.122;2023-05-21T03:23:35;99087.30;;;18.64;57.15
66801;BME280;53703;50.326;19.122;2023-05-21T03:26:29;99081.28;;;18.61;57.18
66801;BME280;53703;50.326;19.122;2023-05-21T03:29:23;99081.77;;;18.61;57.51
66801;BME280;53703;50.326;19.122;2023-05-21T03:32:17;99082.00;;;18.63;56.96
66801;BME280;53703;50.326;19.122;2023-05-21T03:35:11;99081.63;;;18.59;57.14
66801;BME280;53703;50.326;19.122;2023-05-21T03:38:05;99080.44;;;18.54;57.37
66801;BME280;53703;50.326;19.122;2023-05-21T03:40:59;99081.47;;;18.61;57.30
66801;BME280;53703;50.326;19.122;2023-05-21T03:43:53;99082.40;;;18.68;56.70
66801;BME280;53703;50.326;19.122;2023-05-21T03:46:47;99078.77;;;18.68;56.85
66801;BME280;53703;50.326;19.122;2023-05-21T03:49:42;99079.40;;;18.75;56.62
66801;BME280;53703;50.326;19.122;2023-05-21T03:52:36;99080.48;;;18.74;56.72
66801;BME280;53703;50.326;19.122;2023-05-21T03:55:30;99077.38;;;18.67;57.08
66801;BME280;53703;50.326;19.122;2023-05-21T03:58:24;99077.67;;;18.73;56.67
66801;BME280;53703;50.326;19.122;2023-05-21T04:01:19;99078.21;;;18.70;56.71
66801;BME280;53703;50.326;19.122;2023-05-21T04:04:14;99077.84;;;18.69;56.74
66801;BME280;53703;50.326;19.122;2023-05-21T04:07:08;99081.70;;;18.61;57.09
66801;BME280;53703;50.326;19.122;2023-05-21T04:10:08;99082.10;;;18.66;57.00
66801;BME280;53703;50.326;19.122;2023-05-21T04:13:02;99076.23;;;18.61;57.01
66801;BME280;53703;50.326;19.122;2023-05-21T04:15:56;99073.27;;;18.71;56.45
66801;BME280;53703;50.326;19.122;2023-05-21T04:18:51;99073.81;;;18.71;56.42
66801;BME280;53703;50.326;19.122;2023-05-21T04:21:46;99076.69;;;18.67;56.76
66801;BME280;53703;50.326;19.122;2023-05-21T04:24:40;99074.59;;;18.68;56.79
66801;BME280;53703;50.326;19.122;2023-05-21T04:27:35;99069.69;;;18.59;57.08
66801;BME280;53703;50.326;19.122;2023-05-21T04:30:29;99071.80;;;18.62;56.84
66801;BME280;53703;50.326;19.122;2023-05-21T04:33:23;99078.84;;;18.46;57.39
66801;BME280;53703;50.326;19.122;2023-05-21T04:36:17;99080.50;;;18.51;57.18
66801;BME280;53703;50.326;19.122;2023-05-21T04:39:11;99085.27;;;18.45;57.48
66801;BME280;53703;50.326;19.122;2023-05-21T04:42:06;99086.13;;;18.52;57.16
66801;BME280;53703;50.326;19.122;2023-05-21T04:45:02;99085.02;;;18.52;57.07
66801;BME280;53703;50.326;19.122;2023-05-21T04:47:56;99083.00;;;18.39;57.42
66801;BME280;53703;50.326;19.122;2023-05-21T04:50:52;99086.68;;;18.57;56.61
66801;BME280;53703;50.326;19.122;2023-05-21T04:53:48;99084.65;;;18.43;57.32
66801;BME280;53703;50.326;19.122;2023-05-21T04:56:42;99084.08;;;18.55;56.85
66801;BME280;53703;50.326;19.122;2023-05-21T04:59:35;99083.16;;;18.67;56.40
66801;BME280;53703;50.326;19.122;2023-05-21T05:02:31;99084.67;;;18.63;56.54
66801;BME280;53703;50.326;19.122;2023-05-21T05:05:25;99080.34;;;18.28;57.41
66801;BME280;53703;50.326;19.122;2023-05-21T05:08:19;99080.56;;;18.25;57.41
66801;BME280;53703;50.326;19.122;2023-05-21T05:11:13;99078.80;;;18.55;56.26
66801;BME280;53703;50.326;19.122;2023-05-21T05:14:07;99082.11;;;18.50;56.69
66801;BME280;53703;50.326;19.122;2023-05-21T05:17:01;99083.55;;;18.52;56.58
66801;BME280;53703;50.326;19.122;2023-05-21T05:19:55;99087.86;;;18.40;57.43
66801;BME280;53703;50.326;19.122;2023-05-21T05:22:49;99087.25;;;18.47;56.76
66801;BME280;53703;50.326;19.122;2023-05-21T05:25:43;99089.88;;;18.51;56.66
66801;BME280;53703;50.326;19.122;2023-05-21T05:28:38;99088.45;;;18.53;56.66
66801;BME280;53703;50.326;19.122;2023-05-21T05:31:32;99088.09;;;18.56;56.52
66801;BME280;53703;50.326;19.122;2023-05-21T05:34:26;99086.70;;;18.50;56.65
66801;BME280;53703;50.326;19.122;2023-05-21T05:37:20;99089.25;;;18.55;56.60
66801;BME280;53703;50.326;19.122;2023-05-21T05:40:14;99089.80;;;18.44;57.36
66801;BME280;53703;50.326;19.122;2023-05-21T05:43:09;99087.69;;;18.51;56.98
66801;BME280;53703;50.326;19.122;2023-05-21T05:46:03;99087.67;;;18.55;56.76
66801;BME280;53703;50.326;19.122;2023-05-21T05:48:56;99087.47;;;18.56;56.65
66801;BME280;53703;50.326;19.122;2023-05-21T05:51:50;99087.77;;;18.52;56.79
66801;BME280;53703;50.326;19.122;2023-05-21T05:54:44;99084.27;;;18.53;56.67
66801;BME280;53703;50.326;19.122;2023-05-21T05:57:39;99091.06;;;18.46;57.18
66801;BME280;53703;50.326;19.122;2023-05-21T06:00:36;99083.38;;;18.48;56.95
66801;BME280;53703;50.326;19.122;2023-05-21T06:03:30;99081.50;;;18.55;56.69
66801;BME280;53703;50.326;19.122;2023-05-21T06:06:24;99081.43;;;18.53;56.82
66801;BME280;53703;50.326;19.122;2023-05-21T06:09:18;99079.66;;;18.48;57.25
66801;BME280;53703;50.326;19.122;2023-05-21T06:12:13;99078.05;;;18.44;57.30
66801;BME280;53703;50.326;19.122;2023-05-21T06:15:10;99076.16;;;18.44;57.24
66801;BME280;53703;50.326;19.122;2023-05-21T06:18:06;99076.24;;;18.49;57.18
66801;BME280;53703;50.326;19.122;2023-05-21T06:21:00;99077.05;;;18.47;57.27
66801;BME280;53703;50.326;19.122;2023-05-21T06:23:54;99070.09;;;18.47;57.25
66801;BME280;53703;50.326;19.122;2023-05-21T06:26:48;99069.23;;;18.49;57.29
66801;BME280;53703;50.326;19.122;2023-05-21T06:29:42;99067.52;;;18.50;57.00
66801;BME280;53703;50.326;19.122;2023-05-21T06:32:36;99067.46;;;18.53;57.08
66801;BME280;53703;50.326;19.122;2023-05-21T06:35:31;99067.36;;;18.67;56.41
66801;BME280;53703;50.326;19.122;2023-05-21T06:38:28;99066.94;;;18.71;56.20
66801;BME280;53703;50.326;19.122;2023-05-21T06:41:22;99067.73;;;18.81;55.71
66801;BME280;53703;50.326;19.122;2023-05-21T06:44:16;99059.55;;;18.65;56.53
66801;BME280;53703;50.326;19.122;2023-05-21T06:47:10;99052.75;;;18.65;56.32
66801;BME280;53703;50.326;19.122;2023-05-21T06:50:05;99049.13;;;18.68;56.05
66801;BME280;53703;50.326;19.122;2023-05-21T06:52:59;99050.58;;;18.63;56.53
66801;BME280;53703;50.326;19.122;2023-05-21T06:55:53;99050.98;;;18.83;55.74
66801;BME280;53703;50.326;19.122;2023-05-21T06:58:47;99039.84;;;18.85;55.38
66801;BME280;53703;50.326;19.122;2023-05-21T07:01:41;99039.69;;;18.81;55.57
66801;BME280;53703;50.326;19.122;2023-05-21T07:04:36;99035.08;;;18.70;55.76
66801;BME280;53703;50.326;19.122;2023-05-21T07:07:30;99030.09;;;18.69;55.77
66801;BME280;53703;50.326;19.122;2023-05-21T07:10:26;99028.10;;;18.64;55.86
66801;BME280;53703;50.326;19.122;2023-05-21T07:13:20;99025.73;;;18.67;55.76
66801;BME280;53703;50.326;19.122;2023-05-21T07:16:14;99025.01;;;18.69;55.79
66801;BME280;53703;50.326;19.122;2023-05-21T07:19:09;99017.96;;;18.73;55.72
66801;BME280;53703;50.326;19.122;2023-05-21T07:22:03;99021.60;;;18.76;56.34
66801;BME280;53703;50.326;19.122;2023-05-21T07:24:58;99020.79;;;18.85;55.79
66801;BME280;53703;50.326;19.122;2023-05-21T07:27:52;99017.50;;;18.69;55.98
66801;BME280;53703;50.326;19.122;2023-05-21T07:30:46;99017.50;;;18.67;56.02
66801;BME280;53703;50.326;19.122;2023-05-21T07:33:40;99015.23;;;18.64;56.09
66801;BME280;53703;50.326;19.122;2023-05-21T07:36:34;99012.11;;;18.73;55.33
66801;BME280;53703;50.326;19.122;2023-05-21T07:39:28;99012.09;;;18.68;55.68
66801;BME280;53703;50.326;19.122;2023-05-21T07:42:22;99013.20;;;18.73;55.65
66801;BME280;53703;50.326;19.122;2023-05-21T07:45:16;99015.02;;;18.73;55.07
66801;BME280;53703;50.326;19.122;2023-05-21T07:48:10;99016.55;;;18.64;55.21
66801;BME280;53703;50.326;19.122;2023-05-21T07:51:05;99003.30;;;18.72;55.08
66801;BME280;53703;50.326;19.122;2023-05-21T07:53:59;99004.78;;;18.84;54.57
66801;BME280;53703;50.326;19.122;2023-05-21T07:56:53;99002.80;;;18.83;54.78
66801;BME280;53703;50.326;19.122;2023-05-21T07:59:47;99004.19;;;18.87;54.85
66801;BME280;53703;50.326;19.122;2023-05-21T08:02:41;99007.95;;;18.83;54.65
66801;BME280;53703;50.326;19.122;2023-05-21T08:05:47;99008.66;;;18.81;55.49
66801;BME280;53703;50.326;19.122;2023-05-21T08:08:42;99003.84;;;18.86;54.59
66801;BME280;53703;50.326;19.122;2023-05-21T08:11:36;99003.08;;;18.85;54.67
66801;BME280;53703;50.326;19.122;2023-05-21T08:14:32;99001.11;;;18.85;54.39
66801;BME280;53703;50.326;19.122;2023-05-21T08:17:26;99000.33;;;18.88;54.11
66801;BME280;53703;50.326;19.122;2023-05-21T08:20:21;99006.65;;;18.88;53.68
66801;BME280;53703;50.326;19.122;2023-05-21T08:23:15;99005.85;;;18.85;53.98
66801;BME280;53703;50.326;19.122;2023-05-21T08:26:09;99002.84;;;18.85;53.65
66801;BME280;53703;50.326;19.122;2023-05-21T08:29:04;99009.50;;;18.88;54.23
66801;BME280;53703;50.326;19.122;2023-05-21T08:31:58;99012.24;;;18.75;54.77
66801;BME280;53703;50.326;19.122;2023-05-21T08:34:52;99009.65;;;18.75;54.62
66801;BME280;53703;50.326;19.122;2023-05-21T08:37:46;99007.11;;;18.77;54.44
66801;BME280;53703;50.326;19.122;2023-05-21T08:40:40;99013.95;;;18.76;54.31
66801;BME280;53703;50.326;19.122;2023-05-21T08:43:34;99008.61;;;18.77;54.09
66801;BME280;53703;50.326;19.122;2023-05-21T08:46:32;99008.98;;;18.89;53.89
66801;BME280;53703;50.326;19.122;2023-05-21T08:49:31;99010.96;;;18.82;53.98
66801;BME280;53703;50.326;19.122;2023-05-21T08:52:27;99006.80;;;18.83;54.24
66801;BME280;53703;50.326;19.122;2023-05-21T08:55:21;99011.98;;;18.83;53.85
66801;BME280;53703;50.326;19.122;2023-05-21T08:58:16;99009.52;;;18.84;53.46
66801;BME280;53703;50.326;19.122;2023-05-21T09:01:12;99008.56;;;18.86;53.56
66801;BME280;53703;50.326;19.122;2023-05-21T09:04:06;99008.81;;;18.84;53.47
66801;BME280;53703;50.326;19.122;2023-05-21T09:07:12;99007.05;;;18.82;53.01
66801;BME280;53703;50.326;19.122;2023-05-21T09:10:12;99002.05;;;18.93;52.78
66801;BME280;53703;50.326;19.122;2023-05-21T09:13:06;99006.52;;;18.81;53.89
66801;BME280;53703;50.326;19.122;2023-05-21T09:16:01;99006.72;;;18.82;52.81
66801;BME280;53703;50.326;19.122;2023-05-21T09:18:55;99005.90;;;18.86;52.82
66801;BME280;53703;50.326;19.122;2023-05-21T09:21:51;99009.14;;;18.89;52.47
66801;BME280;53703;50.326;19.122;2023-05-21T09:24:45;99006.08;;;18.84;53.14
66801;BME280;53703;50.326;19.122;2023-05-21T09:27:39;99009.26;;;18.82;52.56
66801;BME280;53703;50.326;19.122;2023-05-21T09:30:34;99011.86;;;18.75;53.22
66801;BME280;53703;50.326;19.122;2023-05-21T09:33:28;99014.63;;;18.88;52.44
66801;BME280;53703;50.326;19.122;2023-05-21T09:36:23;99008.69;;;18.88;51.86
66801;BME280;53703;50.326;19.122;2023-05-21T09:39:29;99008.52;;;18.84;52.53
66801;BME280;53703;50.326;19.122;2023-05-21T09:42:24;99007.52;;;18.82;52.48
66801;BME280;53703;50.326;19.122;2023-05-21T09:45:38;99005.80;;;18.88;52.22
66801;BME280;53703;50.326;19.122;2023-05-21T09:48:55;99004.95;;;18.84;52.37
66801;BME280;53703;50.326;19.122;2023-05-21T09:51:49;99003.38;;;18.87;52.33
66801;BME280;53703;50.326;19.122;2023-05-21T09:54:43;98999.80;;;18.81;52.58
66801;BME280;53703;50.326;19.122;2023-05-21T09:57:44;98992.27;;;18.85;52.16
66801;BME280;53703;50.326;19.122;2023-05-21T10:00:41;98999.44;;;18.82;52.26
66801;BME280;53703;50.326;19.122;2023-05-21T10:03:38;98993.14;;;18.81;52.29
66801;BME280;53703;50.326;19.122;2023-05-21T10:06:33;98988.95;;;18.88;51.67
66801;BME280;53703;50.326;19.122;2023-05-21T10:09:30;98990.89;;;18.84;51.81
66801;BME280;53703;50.326;19.122;2023-05-21T10:12:25;98984.71;;;18.89;51.52
66801;BME280;53703;50.326;19.122;2023-05-21T10:15:23;98980.08;;;18.87;51.41
66801;BME280;53703;50.326;19.122;2023-05-21T10:18:19;98978.70;;;18.89;50.99
66801;BME280;53703;50.326;19.122;2023-05-21T10:21:13;98978.23;;;18.96;50.49
66801;BME280;53703;50.326;19.122;2023-05-21T10:24:08;98982.84;;;18.87;51.01
66801;BME280;53703;50.326;19.122;2023-05-21T10:27:03;98980.80;;;18.87;50.60
66801;BME280;53703;50.326;19.122;2023-05-21T10:30:02;98976.96;;;18.91;50.21
66801;BME280;53703;50.326;19.122;2023-05-21T10:32:57;98975.46;;;18.94;50.04
66801;BME280;53703;50.326;19.122;2023-05-21T10:35:53;98972.02;;;19.00;49.20
66801;BME280;53703;50.326;19.122;2023-05-21T10:38:51;98969.99;;;19.14;47.94
66801;BME280;53703;50.326;19.122;2023-05-21T10:41:54;98978.27;;;19.10;48.33
66801;BME280;53703;50.326;19.122;2023-05-21T10:45:07;98971.13;;;18.97;48.85
66801;BME280;53703;50.326;19.122;2023-05-21T10:48:20;98969.86;;;18.96;49.04
66801;BME280;53703;50.326;19.122;2023-05-21T10:51:25;98964.24;;;19.04;48.56
66801;BME280;53703;50.326;19.122;2023-05-21T10:55:09;98967.04;;;19.10;48.08
66801;BME280;53703;50.326;19.122;2023-05-21T10:58:33;98967.89;;;19.09;48.03
66801;BME280;53703;50.326;19.122;2023-05-21T11:01:45;98960.50;;;19.00;48.33
66801;BME280;53703;50.326;19.122;2023-05-21T11:04:41;98964.84;;;19.00;48.72
66801;BME280;53703;50.326;19.122;2023-05-21T11:07:57;98961.14;;;19.03;48.78
66801;BME280;53703;50.326;19.122;2023-05-21T11:10:57;98964.57;;;19.02;48.48
66801;BME280;53703;50.326;19.122;2023-05-21T11:13:51;98961.40;;;19.20;47.20
66801;BME280;53703;50.326;19.122;2023-05-21T11:16:48;98958.25;;;19.26;46.69
66801;BME280;53703;50.326;19.122;2023-05-21T11:19:43;98951.92;;;19.02;47.81
66801;BME280;53703;50.326;19.122;2023-05-21T11:22:38;98950.76;;;19.23;47.12
66801;BME280;53703;50.326;19.122;2023-05-21T11:25:33;98949.91;;;19.16;47.36
66801;BME280;53703;50.326;19.122;2023-05-21T11:28:36;98943.30;;;19.12;48.00
66801;BME280;53703;50.326;19.122;2023-05-21T11:31:32;98949.69;;;19.06;48.62
66801;BME280;53703;50.326;19.122;2023-05-21T11:34:40;98948.02;;;19.25;47.35
66801;BME280;53703;50.326;19.122;2023-05-21T11:37:34;98943.44;;;19.11;48.21
66801;BME280;53703;50.326;19.122;2023-05-21T11:40:32;98942.84;;;19.12;48.18
66801;BME280;53703;50.326;19.122;2023-05-21T11:43:28;98939.25;;;19.14;48.79
66801;BME280;53703;50.326;19.122;2023-05-21T11:46:22;98942.71;;;19.03;49.36
66801;BME280;53703;50.326;19.122;2023-05-21T11:49:19;98941.64;;;19.04;49.25
66801;BME280;53703;50.326;19.122;2023-05-21T11:52:15;98935.75;;;19.06;49.11
66801;BME280;53703;50.326;19.122;2023-05-21T11:55:12;98934.96;;;19.08;49.42
66801;BME280;53703;50.326;19.122;2023-05-21T11:58:07;98941.32;;;18.96;50.50
66801;BME280;53703;50.326;19.122;2023-05-21T12:01:03;98940.55;;;18.92;50.82
66801;BME280;53703;50.326;19.122;2023-05-21T12:03:57;98940.28;;;18.98;50.25
66801;BME280;53703;50.326;19.122;2023-05-21T12:06:51;98939.53;;;18.90;51.01
66801;BME280;53703;50.326;19.122;2023-05-21T12:09:47;98940.09;;;18.95;50.88
66801;BME280;53703;50.326;19.122;2023-05-21T12:12:43;98935.67;;;18.84;50.81
66801;BME280;53703;50.326;19.122;2023-05-21T12:15:47;98939.77;;;18.94;50.44
66801;BME280;53703;50.326;19.122;2023-05-21T12:18:41;98936.48;;;19.06;50.04
66801;BME280;53703;50.326;19.122;2023-05-21T12:21:36;98942.43;;;18.96;50.39
66801;BME280;53703;50.326;19.122;2023-05-21T12:24:30;98937.20;;;18.96;50.69
66801;BME280;53703;50.326;19.122;2023-05-21T12:27:25;98939.87;;;18.87;50.78
66801;BME280;53703;50.326;19.122;2023-05-21T12:30:20;98942.20;;;18.99;50.12
66801;BME280;53703;50.326;19.122;2023-05-21T12:33:14;98939.69;;;19.05;50.09
66801;BME280;53703;50.326;19.122;2023-05-21T12:36:09;98938.25;;;19.02;50.11
66801;BME280;53703;50.326;19.122;2023-05-21T12:39:03;98938.58;;;19.02;50.14
66801;BME280;53703;50.326;19.122;2023-05-21T12:41:57;98936.41;;;19.08;50.18
66801;BME280;53703;50.326;19.122;2023-05-21T12:44:53;98933.42;;;19.06;50.39
66801;BME280;53703;50.326;19.122;2023-05-21T12:47:49;98927.98;;;19.07;50.30
66801;BME280;53703;50.326;19.122;2023-05-21T12:50:58;98930.39;;;19.10;49.88
66801;BME280;53703;50.326;19.122;2023-05-21T12:53:53;98928.55;;;19.05;50.53
66801;BME280;53703;50.326;19.122;2023-05-21T12:56:48;98932.19;;;19.10;49.90
66801;BME280;53703;50.326;19.122;2023-05-21T12:59:51;98932.09;;;19.09;49.95
66801;BME280;53703;50.326;19.122;2023-05-21T13:02:46;98929.90;;;18.95;51.05
66801;BME280;53703;50.326;19.122;2023-05-21T13:05:43;98926.59;;;19.10;50.60
66801;BME280;53703;50.326;19.122;2023-05-21T13:08:38;98926.91;;;19.08;50.51
66801;BME280;53703;50.326;19.122;2023-05-21T13:11:32;98922.26;;;18.96;50.83
66801;BME280;53703;50.326;19.122;2023-05-21T13:14:26;98918.71;;;19.03;50.80
66801;BME280;53703;50.326;19.122;2023-05-21T13:17:20;98917.91;;;19.06;50.26
66801;BME280;53703;50.326;19.122;2023-05-21T13:20:17;98921.95;;;19.11;49.93
66801;BME280;53703;50.326;19.122;2023-05-21T13:23:11;98919.55;;;19.13;49.51
66801;BME280;53703;50.326;19.122;2023-05-21T13:26:05;98918.73;;;19.06;50.22
66801;BME280;53703;50.326;19.122;2023-05-21T13:28:59;98915.70;;;18.96;50.42
66801;BME280;53703;50.326;19.122;2023-05-21T13:31:53;98917.79;;;19.02;49.91
66801;BME280;53703;50.326;19.122;2023-05-21T13:34:47;98913.63;;;19.03;49.79
66801;BME280;53703;50.326;19.122;2023-05-21T13:37:42;98912.14;;;19.03;49.72
66801;BME280;53703;50.326;19.122;2023-05-21T13:40:36;98913.56;;;19.06;49.57
66801;BME280;53703;50.326;19.122;2023-05-21T13:43:31;98911.19;;;19.06;49.66
66801;BME280;53703;50.326;19.122;2023-05-21T13:46:25;98910.98;;;19.07;49.65
66801;BME280;53703;50.326;19.122;2023-05-21T13:49:19;98910.54;;;19.13;49.33
66801;BME280;53703;50.326;19.122;2023-05-21T13:52:13;98914.38;;;19.02;50.08
66801;BME280;53703;50.326;19.122;2023-05-21T13:55:10;98907.41;;;18.88;50.84
66801;BME280;53703;50.326;19.122;2023-05-21T13:58:04;98907.98;;;19.02;50.27
66801;BME280;53703;50.326;19.122;2023-05-21T14:00:58;98909.52;;;19.02;50.05
66801;BME280;53703;50.326;19.122;2023-05-21T14:03:52;98906.73;;;18.97;50.16
66801;BME280;53703;50.326;19.122;2023-05-21T14:06:46;98904.02;;;18.99;50.46
66801;BME280;53703;50.326;19.122;2023-05-21T14:09:40;98904.77;;;18.94;50.39
66801;BME280;53703;50.326;19.122;2023-05-21T14:12:34;98901.18;;;18.83;51.00
66801;BME280;53703;50.326;19.122;2023-05-21T14:15:30;98899.61;;;18.97;50.92
66801;BME280;53703;50.326;19.122;2023-05-21T14:18:24;98901.61;;;18.87;51.39
66801;BME280;53703;50.326;19.122;2023-05-21T14:21:18;98904.30;;;18.92;51.24
66801;BME280;53703;50.326;19.122;2023-05-21T14:24:12;98903.18;;;18.84;51.61
66801;BME280;53703;50.326;19.122;2023-05-21T14:27:07;98900.77;;;18.93;51.17
66801;BME280;53703;50.326;19.122;2023-05-21T14:30:01;98900.77;;;18.82;51.63
66801;BME280;53703;50.326;19.122;2023-05-21T14:32:55;98896.97;;;18.87;51.46
66801;BME280;53703;50.326;19.122;2023-05-21T14:35:49;98898.63;;;18.95;51.35
66801;BME280;53703;50.326;19.122;2023-05-21T14:38:43;98900.03;;;18.95;51.16
66801;BME280;53703;50.326;19.122;2023-05-21T14:41:40;98898.38;;;18.98;50.84
66801;BME280;53703;50.326;19.122;2023-05-21T14:44:34;98904.86;;;19.05;50.72
66801;BME280;53703;50.326;19.122;2023-05-21T14:47:28;98902.63;;;18.97;50.90
66801;BME280;53703;50.326;19.122;2023-05-21T14:50:22;98901.48;;;18.98;50.91
66801;BME280;53703;50.326;19.122;2023-05-21T14:53:17;98897.42;;;18.95;51.54
66801;BME280;53703;50.326;19.122;2023-05-21T14:56:11;98896.14;;;18.99;51.25
66801;BME280;53703;50.326;19.122;2023-05-21T14:59:06;98891.48;;;19.02;50.94
66801;BME280;53703;50.326;19.122;2023-05-21T15:02:00;98895.63;;;19.04;50.87
66801;BME280;53703;50.326;19.122;2023-05-21T15:04:54;98894.99;;;18.98;51.52
66801;BME280;53703;50.326;19.122;2023-05-21T15:07:48;98897.73;;;18.97;51.75
66801;BME280;53703;50.326;19.122;2023-05-21T15:10:42;98898.48;;;18.96;52.15
66801;BME280;53703;50.326;19.122;2023-05-21T15:13:36;98892.25;;;18.99;51.76
66801;BME280;53703;50.326;19.122;2023-05-21T15:16:30;98897.48;;;19.04;51.28
66801;BME280;53703;50.326;19.122;2023-05-21T15:19:24;98899.40;;;19.07;51.16
66801;BME280;53703;50.326;19.122;2023-05-21T15:22:18;98901.98;;;19.07;51.24
66801;BME280;53703;50.326;19.122;2023-05-21T15:25:12;98901.59;;;19.13;51.23
66801;BME280;53703;50.326;19.122;2023-05-21T15:28:07;98902.02;;;19.06;51.63
66801;BME280;53703;50.326;19.122;2023-05-21T15:31:01;98901.42;;;19.06;51.64
66801;BME280;53703;50.326;19.122;2023-05-21T15:33:55;98902.13;;;19.09;51.47
66801;BME280;53703;50.326;19.122;2023-05-21T15:36:52;98898.98;;;18.97;52.02
66801;BME280;53703;50.326;19.122;2023-05-21T15:39:47;98893.56;;;19.05;51.18
66801;BME280;53703;50.326;19.122;2023-05-21T15:42:41;98895.09;;;19.06;51.22
66801;BME280;53703;50.326;19.122;2023-05-21T15:45:36;98893.66;;;19.12;51.04
66801;BME280;53703;50.326;19.122;2023-05-21T15:48:31;98889.59;;;19.16;50.98
66801;BME280;53703;50.326;19.122;2023-05-21T15:51:24;98889.55;;;19.08;51.27